Terminal Aerodrome Forecast
Issued by NWS

Home | Current Version | Previous Version | Text Only | Print | Product List | Glossary On
Versions: 1 2 3 4 5 6 7 8 9 10 11 12 13
848
FTUS44 KLIX 202320
TAFMCB
TAF
KMCB 202320Z 2100/2124 00000KT P6SM FEW200
     FM211100 00000KT 5SM BR FEW015 FEW200
     FM211400 VRB03KT P6SM FEW020 FEW200
     FM212200 13004KT P6SM BKN045 BKN080=

USA.gov is the U.S. government's official web portal to all federal, state and local government web resources and services.